Time;durP1;ratioP1;P1;durP2;ratioP2;P2;SDS_P1;SDS_P2;PMS_P1;PMS_P2;Temp;Humidity;BMP_temperature;BMP_pressure;BME280_temperature;BME280_humidity;BME280_pressure;Samples;Min_cycle;Max_cycle;Signal;HPM_P1;HPM_P2
2023/03/08 00:01:17;;;;;;;1.90;0.90;;;;;;;9.79;46.40;98103.94;144626;1260;96644;-76
2023/03/08 00:04:39;;;;;;;1.10;0.80;;;;;;;9.77;46.51;98107.08;145049;1256;100980;-77
2023/03/08 00:08:01;;;;;;;1.00;0.70;;;;;;;9.76;46.33;98111.77;144850;1257;97413;-76
2023/03/08 00:11:23;;;;;;;1.20;0.80;;;;;;;9.74;46.31;98111.80;144882;1257;96631;-76
2023/03/08 00:14:45;;;;;;;1.40;1.00;;;;;;;9.72;46.48;98109.56;144738;1260;107575;-77
2023/03/08 00:18:07;;;;;;;1.00;0.70;;;;;;;9.69;46.44;98110.09;144800;1261;96635;-76
2023/03/08 00:21:29;;;;;;;1.70;0.90;;;;;;;9.67;46.42;98106.13;144985;1256;97189;-76
2023/03/08 00:24:52;;;;;;;2.10;0.90;;;;;;;9.64;46.54;98100.77;144936;1260;96673;-75
2023/03/08 00:28:14;;;;;;;1.10;0.80;;;;;;;9.61;46.51;98094.05;144895;1257;97560;-76
2023/03/08 00:31:35;;;;;;;0.80;0.70;;;;;;;9.60;46.56;98094.92;145090;1256;96577;-77
2023/03/08 00:34:57;;;;;;;2.70;0.90;;;;;;;9.58;46.44;98096.16;144865;1260;96662;-77
2023/03/08 00:38:19;;;;;;;0.80;0.80;;;;;;;9.56;46.64;98101.38;144805;1259;96661;-76
2023/03/08 00:41:41;;;;;;;2.20;0.90;;;;;;;9.54;46.53;98102.08;144950;1261;96944;-75
2023/03/08 00:45:03;;;;;;;0.70;0.70;;;;;;;9.52;46.49;98099.33;144906;1262;110045;-77
2023/03/08 00:48:26;;;;;;;0.90;0.70;;;;;;;9.50;46.53;98103.34;144792;1260;96563;-76
2023/03/08 00:51:48;;;;;;;1.60;1.00;;;;;;;9.46;46.57;98104.92;145126;1260;96635;-77
2023/03/08 00:55:12;;;;;;;1.10;0.60;;;;;;;9.44;46.71;98106.33;144814;1260;102143;-76
2023/03/08 00:58:35;;;;;;;1.10;0.70;;;;;;;9.42;46.65;98102.55;145037;1257;96541;-76
2023/03/08 01:01:57;;;;;;;0.90;0.70;;;;;;;9.39;46.63;98100.84;144837;1278;96617;-75
2023/03/08 01:05:19;;;;;;;1.70;0.80;;;;;;;9.35;46.63;98099.14;144862;1260;97898;-75
2023/03/08 01:08:42;;;;;;;1.30;0.90;;;;;;;9.32;46.73;98097.06;144909;1260;108362;-78
2023/03/08 01:12:04;;;;;;;1.00;0.80;;;;;;;9.31;46.79;98089.11;144997;1256;96554;-78
2023/03/08 01:15:26;;;;;;;1.00;0.50;;;;;;;9.29;46.67;98092.42;144946;1257;96551;-76
2023/03/08 01:18:48;;;;;;;1.20;0.80;;;;;;;9.27;46.82;98087.39;144864;1273;96653;-77
2023/03/08 01:22:11;;;;;;;2.30;0.60;;;;;;;9.26;46.80;98093.31;144992;1260;96631;-75
2023/03/08 01:25:33;;;;;;;1.40;0.70;;;;;;;9.24;46.85;98087.42;144747;1256;96612;-78
2023/03/08 01:28:56;;;;;;;1.60;1.20;;;;;;;9.22;46.86;98089.86;145028;1256;97748;-76
2023/03/08 01:32:17;;;;;;;1.40;0.50;;;;;;;9.19;46.93;98086.77;144955;1256;96699;-75
2023/03/08 01:35:39;;;;;;;0.50;0.50;;;;;;;9.17;46.87;98084.02;144985;1256;97467;-75
2023/03/08 01:39:01;;;;;;;1.20;0.70;;;;;;;9.15;46.86;98085.60;144937;1260;109678;-81
2023/03/08 01:42:26;;;;;;;1.40;0.80;;;;;;;9.13;46.83;98074.35;145035;1256;108527;-77
2023/03/08 01:46:00;;;;;;;1.00;0.60;;;;;;;9.09;47.01;98070.39;144933;1260;97976;-76
2023/03/08 01:49:26;;;;;;;1.20;0.60;;;;;;;9.07;46.97;98079.92;145007;1257;109551;-76
2023/03/08 01:52:52;;;;;;;3.70;1.60;;;;;;;9.04;46.89;98085.50;144929;1261;110532;-75
2023/03/08 01:56:16;;;;;;;1.50;0.90;;;;;;;9.01;46.99;98088.46;145044;1256;111385;-76
2023/03/08 01:59:38;;;;;;;0.70;0.40;;;;;;;8.97;46.99;98086.59;144762;1260;110059;-81
2023/03/08 02:03:03;;;;;;;0.80;0.70;;;;;;;8.95;47.04;98079.66;144761;1260;97055;-76
2023/03/08 02:06:27;;;;;;;1.40;0.80;;;;;;;8.93;47.06;98086.96;145105;1256;109390;-78
2023/03/08 02:09:49;;;;;;;0.90;0.50;;;;;;;8.92;47.06;98091.83;145008;1260;110561;-75
2023/03/08 02:13:12;;;;;;;1.60;0.80;;;;;;;8.89;47.08;98090.80;144844;1260;96801;-77
2023/03/08 02:16:37;;;;;;;1.00;0.50;;;;;;;8.89;47.16;98089.42;144913;1261;111714;-78
2023/03/08 02:20:11;;;;;;;1.60;0.60;;;;;;;8.86;47.11;98091.67;144850;1260;96557;-76
2023/03/08 02:23:33;;;;;;;2.20;0.70;;;;;;;8.84;47.18;98094.31;144830;1258;109791;-75
2023/03/08 02:27:02;;;;;;;1.60;0.50;;;;;;;8.83;47.16;98089.79;144814;1263;96524;-77
2023/03/08 02:30:28;;;;;;;2.40;0.80;;;;;;;8.81;47.14;98096.56;145029;1256;110863;-76
2023/03/08 02:33:50;;;;;;;0.70;0.50;;;;;;;8.80;47.20;98100.20;144807;1257;111230;-77
2023/03/08 02:37:12;;;;;;;0.70;0.60;;;;;;;8.79;47.08;98111.98;145015;1256;96597;-77
2023/03/08 02:40:33;;;;;;;1.70;0.60;;;;;;;8.78;47.08;98111.14;144846;1260;96979;-76
2023/03/08 02:43:55;;;;;;;1.90;0.70;;;;;;;8.78;47.17;98112.17;145019;1256;102222;-75
2023/03/08 02:47:17;;;;;;;1.00;0.60;;;;;;;8.76;47.07;98117.54;145046;1257;97942;-74
2023/03/08 02:50:40;;;;;;;1.70;1.10;;;;;;;8.74;46.96;98119.29;144856;1257;97358;-78
2023/03/08 02:54:02;;;;;;;3.50;0.70;;;;;;;8.73;47.13;98123.44;145025;1260;96657;-76
2023/03/08 02:57:24;;;;;;;3.10;1.30;;;;;;;8.71;47.05;98124.16;144948;1260;108474;-76
2023/03/08 03:00:47;;;;;;;1.30;0.50;;;;;;;8.71;47.13;98126.23;144873;1261;96591;-75
2023/03/08 03:04:09;;;;;;;1.90;0.90;;;;;;;8.69;47.14;98130.73;145174;1260;96637;-75
2023/03/08 03:07:35;;;;;;;1.60;0.60;;;;;;;8.68;47.11;98136.64;144881;1262;98001;-74
2023/03/08 03:10:57;;;;;;;1.00;0.50;;;;;;;8.67;47.15;98138.73;144826;1262;97458;-78
2023/03/08 03:14:19;;;;;;;1.00;0.60;;;;;;;8.66;47.23;98138.55;144864;1256;97891;-75
2023/03/08 03:17:40;;;;;;;1.20;0.70;;;;;;;8.64;47.11;98142.55;144869;1260;96660;-79
2023/03/08 03:21:04;;;;;;;1.70;0.80;;;;;;;8.65;47.20;98141.33;144758;1260;96552;-75
2023/03/08 03:24:26;;;;;;;2.50;0.70;;;;;;;8.65;47.15;98152.94;144746;1260;96565;-77
2023/03/08 03:27:52;;;;;;;1.50;0.90;;;;;;;8.65;47.16;98160.89;144775;1260;97863;-75
2023/03/08 03:31:18;;;;;;;1.40;0.70;;;;;;;8.64;47.09;98154.49;144880;1262;96602;-75
2023/03/08 03:34:40;;;;;;;1.20;0.60;;;;;;;8.63;47.12;98155.88;144792;1262;96560;-77
2023/03/08 03:38:02;;;;;;;1.10;0.80;;;;;;;8.63;47.16;98166.95;144783;1262;96623;-76
2023/03/08 03:41:24;;;;;;;3.10;1.60;;;;;;;8.62;47.19;98158.14;145065;1260;96641;-78
2023/03/08 03:44:54;;;;;;;2.10;0.60;;;;;;;8.61;47.18;98166.63;144987;1279;110645;-76
2023/03/08 03:48:16;;;;;;;1.50;1.10;;;;;;;8.60;47.32;98167.14;144768;1260;97409;-76
2023/03/08 03:51:38;;;;;;;1.10;0.70;;;;;;;8.60;47.21;98173.73;145062;1258;96668;-77
2023/03/08 03:55:06;;;;;;;1.30;0.50;;;;;;;8.59;47.22;98179.10;144941;1261;103090;-76
2023/03/08 03:58:29;;;;;;;0.80;0.60;;;;;;;8.60;47.21;98177.17;145117;1262;96952;-75
2023/03/08 04:01:51;;;;;;;2.50;0.70;;;;;;;8.59;47.12;98185.33;144929;1261;96638;-75
2023/03/08 04:05:17;;;;;;;3.00;0.70;;;;;;;8.59;47.30;98187.41;144895;1260;105037;-76
2023/03/08 04:08:42;;;;;;;1.00;0.70;;;;;;;8.58;47.23;98186.89;145132;1260;105127;-76
2023/03/08 04:12:06;;;;;;;1.70;0.80;;;;;;;8.58;47.28;98192.95;144908;1260;102248;-77
2023/03/08 04:15:28;;;;;;;0.60;0.60;;;;;;;8.57;47.21;98194.86;145009;1257;96950;-75
2023/03/08 04:18:53;;;;;;;4.30;0.70;;;;;;;8.57;47.30;98189.66;144836;1257;96734;-74
2023/03/08 04:22:15;;;;;;;1.70;0.90;;;;;;;8.56;47.32;98191.23;144909;1257;96712;-76
2023/03/08 04:25:41;;;;;;;1.10;0.70;;;;;;;8.55;47.42;98190.71;145076;1263;102130;-77
2023/03/08 04:29:05;;;;;;;0.90;0.70;;;;;;;8.54;47.37;98188.64;144857;1260;96611;-78
2023/03/08 04:32:31;;;;;;;0.90;0.70;;;;;;;8.53;47.30;98187.77;144897;1262;102523;-77
2023/03/08 04:35:53;;;;;;;2.50;1.20;;;;;;;8.51;47.35;98184.32;145096;1271;102363;-77
2023/03/08 04:39:16;;;;;;;1.20;0.80;;;;;;;8.50;47.40;98186.92;144748;1261;103219;-78
2023/03/08 04:42:39;;;;;;;1.30;1.00;;;;;;;8.49;47.52;98192.45;144975;1262;96588;-75
2023/03/08 04:46:03;;;;;;;1.40;0.90;;;;;;;8.47;47.47;98201.11;145108;1260;96627;-77
2023/03/08 04:49:26;;;;;;;2.40;1.00;;;;;;;8.46;47.53;98211.52;144809;1257;97816;-78
2023/03/08 04:52:52;;;;;;;1.30;1.10;;;;;;;8.45;47.58;98211.17;144774;1261;102179;-77
2023/03/08 04:56:15;;;;;;;1.80;0.90;;;;;;;8.44;47.55;98217.58;144847;1256;96674;-77
2023/03/08 04:59:38;;;;;;;2.00;1.20;;;;;;;8.43;47.67;98217.92;144844;1257;96594;-77
2023/03/08 05:03:00;;;;;;;2.30;1.00;;;;;;;8.42;47.60;98221.22;144639;1261;290325;-77
2023/03/08 05:06:24;;;;;;;1.40;1.30;;;;;;;8.41;47.77;98223.30;144828;1260;107289;-75
2023/03/08 05:09:46;;;;;;;1.50;1.30;;;;;;;8.40;47.56;98227.45;144863;1261;108646;-79
2023/03/08 05:13:08;;;;;;;1.50;1.00;;;;;;;8.40;47.69;98229.52;145079;1257;96597;-77
2023/03/08 05:16:30;;;;;;;2.50;1.80;;;;;;;8.41;47.66;98230.56;145021;1260;96565;-78
2023/03/08 05:19:52;;;;;;;2.00;1.40;;;;;;;8.41;47.62;98240.26;144858;1257;98023;-75
2023/03/08 05:23:16;;;;;;;3.50;1.20;;;;;;;8.42;47.61;98244.23;144881;1261;96684;-75
2023/03/08 05:26:38;;;;;;;1.90;1.30;;;;;;;8.41;47.65;98246.85;144700;1262;96575;-78
2023/03/08 05:30:05;;;;;;;2.60;1.50;;;;;;;8.42;47.65;98247.70;144843;1261;96689;-76
2023/03/08 05:33:26;;;;;;;1.90;1.30;;;;;;;8.42;47.59;98251.34;145022;1260;96574;-78
2023/03/08 05:36:48;;;;;;;2.70;1.60;;;;;;;8.43;47.74;98253.58;144784;1256;97589;-76
2023/03/08 05:40:11;;;;;;;2.40;1.50;;;;;;;8.44;47.47;98261.02;145035;1259;98038;-78
2023/03/08 05:43:34;;;;;;;1.40;1.00;;;;;;;8.46;47.60;98264.99;144782;1263;96626;-81
2023/03/08 05:46:58;;;;;;;1.90;1.20;;;;;;;8.48;47.56;98271.41;144835;1262;97834;-77
2023/03/08 05:50:20;;;;;;;4.60;2.00;;;;;;;8.49;47.53;98274.34;144841;1257;96914;-77
2023/03/08 05:53:45;;;;;;;2.30;1.40;;;;;;;8.49;47.48;98280.21;144797;1279;97842;-77
2023/03/08 05:57:07;;;;;;;3.40;1.70;;;;;;;8.50;47.59;98288.55;144804;1260;96617;-75
2023/03/08 06:00:30;;;;;;;3.10;1.40;;;;;;;8.52;47.58;98292.69;144935;1262;96570;-74
2023/03/08 06:03:55;;;;;;;1.80;1.40;;;;;;;8.53;47.59;98304.11;144761;1260;96579;-77
2023/03/08 06:07:18;;;;;;;4.00;1.50;;;;;;;8.52;47.59;98309.47;144832;1257;111127;-76
2023/03/08 06:10:44;;;;;;;1.70;1.60;;;;;;;8.53;47.46;98321.92;144771;1257;110703;-77
2023/03/08 06:14:09;;;;;;;1.60;1.50;;;;;;;8.53;47.46;98332.48;144625;1273;109774;-79
2023/03/08 06:17:34;;;;;;;2.10;1.50;;;;;;;8.57;47.48;98339.25;144912;1262;109961;-77
2023/03/08 06:21:06;;;;;;;4.20;2.00;;;;;;;8.65;47.50;98345.64;144442;1256;96616;-75
2023/03/08 06:24:31;;;;;;;1.70;1.60;;;;;;;8.75;47.39;98351.17;144947;1256;109695;-76
2023/03/08 06:27:54;;;;;;;3.50;2.00;;;;;;;8.83;47.09;98352.02;144860;1263;97075;-76
2023/03/08 06:31:27;;;;;;;1.80;1.40;;;;;;;8.91;47.08;98354.42;144778;1262;110757;-76
2023/03/08 06:34:50;;;;;;;1.90;1.40;;;;;;;9.04;46.87;98359.95;145061;1263;97508;-77
2023/03/08 06:38:12;;;;;;;2.20;1.60;;;;;;;9.16;46.58;98365.79;145208;1270;97454;-77
2023/03/08 06:41:34;;;;;;;2.50;1.80;;;;;;;9.27;46.47;98366.63;144809;1257;103034;-76
2023/03/08 06:44:56;;;;;;;2.50;1.50;;;;;;;9.38;46.37;98372.83;144898;1257;97061;-80
2023/03/08 06:48:18;;;;;;;3.10;2.00;;;;;;;9.45;46.22;98380.25;144983;1262;96579;-81
2023/03/08 06:51:40;;;;;;;2.70;1.90;;;;;;;9.50;46.06;98391.15;144808;1261;108378;-75
2023/03/08 06:55:05;;;;;;;3.70;2.10;;;;;;;9.54;46.10;98396.51;145034;1256;96714;-74
2023/03/08 06:58:41;;;;;;;4.10;1.80;;;;;;;9.57;45.79;98397.55;144831;1262;108270;-74
2023/03/08 07:02:06;;;;;;;2.40;1.70;;;;;;;9.60;45.88;98398.56;145104;1261;96654;-75
2023/03/08 07:05:28;;;;;;;2.80;1.60;;;;;;;9.62;45.65;98406.71;144756;1260;107593;-79
2023/03/08 07:08:50;;;;;;;5.80;2.60;;;;;;;9.65;45.62;98403.41;145235;1260;97208;-81
2023/03/08 07:12:12;;;;;;;3.40;1.90;;;;;;;9.68;45.67;98411.36;145216;1262;96643;-75
2023/03/08 07:15:39;;;;;;;3.10;1.70;;;;;;;9.71;45.59;98411.19;145099;1260;96649;-75
2023/03/08 07:19:02;;;;;;;3.90;1.80;;;;;;;9.78;46.19;98407.50;144883;1256;96584;-75
2023/03/08 07:22:24;;;;;;;2.40;1.40;;;;;;;9.93;48.75;98416.96;145358;1261;96619;-74
2023/03/08 07:25:46;;;;;;;2.70;1.40;;;;;;;10.24;51.43;98421.66;144935;1257;96609;-81
2023/03/08 07:29:08;;;;;;;2.80;1.80;;;;;;;10.36;51.08;98421.42;144736;1256;96615;-76
2023/03/08 07:32:30;;;;;;;1.80;1.40;;;;;;;10.41;50.95;98427.30;144914;1270;96657;-78
2023/03/08 07:35:52;;;;;;;1.90;1.70;;;;;;;10.47;50.73;98429.16;145117;1262;97852;-77
2023/03/08 07:39:16;;;;;;;1.90;1.60;;;;;;;10.59;50.60;98432.89;145473;1256;96656;-76
2023/03/08 07:42:38;;;;;;;2.30;1.70;;;;;;;10.80;50.49;98436.89;144765;1260;109866;-84
2023/03/08 07:46:20;;;;;;;1.80;1.60;;;;;;;11.09;50.08;98439.41;144884;1262;110805;-78
2023/03/08 07:49:42;;;;;;;3.60;1.90;;;;;;;11.29;49.82;98444.94;145067;1257;96565;-74
2023/03/08 07:53:04;;;;;;;3.60;1.80;;;;;;;11.66;49.43;98448.18;144821;1262;97857;-76
2023/03/08 07:56:26;;;;;;;3.30;2.80;;;;;;;12.39;48.95;98452.96;145057;1270;104033;-81
2023/03/08 07:59:56;;;;;;;3.40;2.70;;;;;;;13.41;47.94;98452.86;144620;1261;97509;-85
2023/03/08 08:03:32;;;;;;;3.20;2.20;;;;;;;15.07;46.39;98459.34;144588;1257;102039;-79
2023/03/08 08:06:54;;;;;;;4.00;1.90;;;;;;;17.15;44.07;98462.77;145253;1256;97769;-82
2023/03/08 08:10:16;;;;;;;3.00;1.70;;;;;;;18.37;42.08;98464.91;145386;1257;96590;-82
2023/03/08 08:13:42;;;;;;;2.10;1.90;;;;;;;19.37;40.29;98471.42;145151;1256;108712;-77
2023/03/08 08:17:07;;;;;;;2.10;1.90;;;;;;;20.12;38.71;98477.14;145323;1261;108882;-76
2023/03/08 08:20:29;;;;;;;2.60;2.00;;;;;;;20.74;37.41;98485.73;144726;1257;96635;-78
2023/03/08 08:23:52;;;;;;;1.80;1.60;;;;;;;21.27;36.53;98489.52;144865;1260;97496;-80
2023/03/08 08:27:14;;;;;;;2.00;1.60;;;;;;;21.13;35.54;98496.72;144854;1269;96602;-78
2023/03/08 08:30:36;;;;;;;2.10;1.30;;;;;;;21.30;35.19;98492.38;144854;1260;97894;-78
2023/03/08 08:33:58;;;;;;;2.20;2.00;;;;;;;21.51;34.75;98496.21;144952;1260;96654;-78
2023/03/08 08:37:21;;;;;;;2.70;1.60;;;;;;;22.60;33.76;98504.63;144678;1262;96564;-80
2023/03/08 08:40:42;;;;;;;2.80;1.40;;;;;;;22.16;33.04;98504.92;144694;1260;97926;-82
2023/03/08 08:44:05;;;;;;;2.30;1.70;;;;;;;21.84;33.13;98509.76;145470;1263;97836;-77
2023/03/08 08:47:31;;;;;;;2.30;1.30;;;;;;;22.15;32.88;98512.35;145816;1260;110646;-77
2023/03/08 08:50:53;;;;;;;3.10;1.80;;;;;;;22.38;32.84;98513.66;144960;1260;97056;-84
2023/03/08 08:54:18;;;;;;;2.60;1.60;;;;;;;23.15;32.50;98522.83;144668;1264;110691;-85
2023/03/08 08:57:40;;;;;;;2.40;1.60;;;;;;;23.91;32.10;98521.67;144826;1260;96561;-79
2023/03/08 09:01:02;;;;;;;3.50;1.30;;;;;;;25.85;31.01;98528.06;144769;1262;97668;-77
2023/03/08 09:04:24;;;;;;;2.20;1.50;;;;;;;26.75;29.54;98536.41;144765;1263;97327;-78
2023/03/08 09:07:49;;;;;;;1.90;1.10;;;;;;;26.78;28.73;98533.88;144820;1257;96556;-78
2023/03/08 09:11:11;;;;;;;2.60;1.30;;;;;;;26.70;28.21;98540.33;144481;1263;97448;-76
2023/03/08 09:14:34;;;;;;;4.40;1.80;;;;;;;27.66;27.00;98531.95;145102;1257;96577;-77
2023/03/08 09:17:56;;;;;;;4.80;2.30;;;;;;;28.77;25.10;98537.48;144933;1258;97353;-77
2023/03/08 09:21:18;;;;;;;2.90;1.80;;;;;;;29.01;23.75;98545.73;144895;1257;98825;-77
2023/03/08 09:24:39;;;;;;;3.50;1.70;;;;;;;28.94;22.73;98546.64;144957;1262;96567;-76
2023/03/08 09:28:01;;;;;;;5.50;1.90;;;;;;;28.90;22.13;98548.02;144950;1270;97080;-78
2023/03/08 09:31:24;;;;;;;2.80;2.10;;;;;;;29.65;21.46;98549.39;144885;1261;96635;-78
2023/03/08 09:34:46;;;;;;;4.80;2.00;;;;;;;30.34;20.69;98549.93;144926;1260;96794;-77
2023/03/08 09:38:08;;;;;;;4.20;2.00;;;;;;;30.99;19.94;98552.44;144771;1263;97851;-77
2023/03/08 09:41:52;;;;;;;2.10;1.80;;;;;;;31.35;19.46;98548.30;144877;1263;96623;-77
2023/03/08 09:45:20;;;;;;;3.00;1.50;;;;;;;31.43;19.06;98541.35;144831;1262;96583;-77
2023/03/08 09:48:46;;;;;;;5.90;1.40;;;;;;;32.00;18.91;98543.77;144719;1260;96584;-79
2023/03/08 09:52:37;;;;;;;2.30;1.30;;;;;;;32.62;18.51;98544.34;144965;1269;96705;-77
2023/03/08 09:56:14;;;;;;;2.60;1.70;;;;;;;33.22;18.09;98549.79;144815;1259;96648;-77
2023/03/08 09:59:56;;;;;;;2.00;1.40;;;;;;;33.82;17.67;98552.01;144627;1262;96574;-79
2023/03/08 10:03:21;;;;;;;3.50;1.20;;;;;;;34.22;16.99;98553.55;144740;1256;96627;-78
2023/03/08 10:06:46;;;;;;;3.30;1.20;;;;;;;34.70;16.70;98554.73;144842;1261;96581;-79
2023/03/08 10:10:08;;;;;;;2.60;1.60;;;;;;;34.32;16.48;98549.05;145044;1260;96720;-78
2023/03/08 10:13:39;;;;;;;2.30;1.50;;;;;;;33.05;16.61;98542.78;144938;1257;97461;-76
2023/03/08 10:17:11;;;;;;;4.40;1.90;;;;;;;31.53;16.95;98544.23;145010;1261;97855;-75
2023/03/08 10:20:36;;;;;;;4.00;1.20;;;;;;;30.13;17.01;98537.20;144946;1262;97116;-77
2023/03/08 10:23:59;;;;;;;5.10;1.30;;;;;;;29.65;17.39;98539.49;144781;1262;97419;-76
2023/03/08 10:27:25;;;;;;;2.10;1.40;;;;;;;30.24;17.52;98537.33;144899;1260;96643;-77
2023/03/08 10:30:52;;;;;;;4.60;1.40;;;;;;;31.03;17.30;98541.55;144849;1264;97869;-77
2023/03/08 10:34:20;;;;;;;8.60;1.10;;;;;;;31.10;17.04;98548.05;144932;1272;96553;-76
2023/03/08 10:37:49;;;;;;;4.80;1.70;;;;;;;30.62;17.17;98543.02;144934;1258;96640;-77
2023/03/08 10:41:14;;;;;;;2.50;1.30;;;;;;;29.58;17.52;98541.91;144872;1260;96581;-79
2023/03/08 10:44:41;;;;;;;5.30;1.50;;;;;;;28.49;17.68;98536.64;144991;1261;97306;-86
2023/03/08 10:48:04;;;;;;;3.80;1.80;;;;;;;27.35;17.85;98537.70;145053;1263;97909;-84
2023/03/08 10:51:29;;;;;;;2.90;1.70;;;;;;;26.50;18.17;98529.78;144948;1263;97990;-85
2023/03/08 10:55:05;;;;;;;4.00;1.60;;;;;;;25.72;18.41;98524.70;144764;1260;97342;-84
2023/03/08 10:58:29;;;;;;;4.80;1.90;;;;;;;24.77;18.97;98518.81;144877;1262;97898;-85
2023/03/08 11:01:58;;;;;;;3.00;2.00;;;;;;;23.70;19.62;98526.15;144868;1262;97036;-82
2023/03/08 11:05:22;;;;;;;;;;;;;;;22.88;20.05;98525.22;144893;1262;96668;-85
2023/03/08 11:08:53;;;;;;;2.70;1.70;;;;;;;22.25;20.41;98521.05;144801;1269;96578;-84
2023/03/08 11:12:23;;;;;;;3.60;1.80;;;;;;;21.51;21.03;98522.06;145109;1259;97893;-86
2023/03/08 11:16:10;;;;;;;1.90;1.70;;;;;;;20.78;21.74;98522.30;144753;1262;96656;-80
2023/03/08 11:19:53;;;;;;;4.10;1.50;;;;;;;20.13;22.10;98527.55;144495;1269;96674;-85
2023/03/08 11:23:31;;;;;;;3.20;1.60;;;;;;;19.57;22.71;98524.67;144635;1265;96803;-84
2023/03/08 11:27:30;;;;;;;3.70;1.10;;;;;;;19.88;24.05;98527.22;144326;1267;96619;-79
2023/03/08 11:31:18;;;;;;;4.20;1.60;;;;;;;20.68;24.63;98526.25;144205;1266;96777;-80
2023/03/08 11:34:55;;;;;;;2.50;1.50;;;;;;;20.83;24.28;98522.20;144255;1268;97054;-82
2023/03/08 11:38:21;;;;;;;4.60;1.50;;;;;;;20.92;24.15;98517.51;144357;1266;97609;-82
2023/03/08 11:42:14;;;;;;;5.30;1.50;;;;;;;21.47;24.87;98510.42;144417;1264;96674;-80
2023/03/08 11:45:48;;;;;;;1.80;1.30;;;;;;;21.92;24.76;98508.09;144309;1263;97763;-82
2023/03/08 11:49:18;;;;;;;1.90;1.40;;;;;;;22.34;24.79;98509.23;144260;1267;96603;-85
2023/03/08 11:52:57;;;;;;;5.50;1.30;;;;;;;23.14;24.85;98505.33;144498;1266;96661;-79
2023/03/08 11:56:33;;;;;;;2.60;1.40;;;;;;;23.60;24.01;98494.81;144515;1261;97847;-81
2023/03/08 12:00:05;;;;;;;3.70;2.00;;;;;;;24.15;22.92;98484.55;144444;1262;96630;-81
2023/03/08 12:03:39;;;;;;;3.60;1.70;;;;;;;24.65;22.17;98490.65;144428;1271;96773;-79
2023/03/08 12:07:07;;;;;;;3.10;1.70;;;;;;;25.11;21.52;98495.15;144523;1264;96652;-77
2023/03/08 12:10:55;;;;;;;4.10;1.50;;;;;;;25.56;20.91;98494.98;144862;1264;97791;-77
2023/03/08 12:14:30;;;;;;;1.70;1.10;;;;;;;25.99;20.38;98491.38;144701;1264;96645;-80
2023/03/08 12:18:08;;;;;;;2.50;1.20;;;;;;;26.25;19.88;98491.27;144439;1264;97528;-79
2023/03/08 12:21:38;;;;;;;2.90;1.40;;;;;;;26.04;19.64;98496.87;144575;1257;96658;-77
2023/03/08 12:25:23;;;;;;;6.10;1.30;;;;;;;25.21;19.56;98496.81;144569;1271;97896;-80
2023/03/08 12:28:52;;;;;;;7.80;1.80;;;;;;;24.28;19.93;98493.33;144704;1263;96706;-78
2023/03/08 12:32:15;;;;;;;3.20;1.50;;;;;;;23.41;20.11;98494.54;144585;1257;96648;-77
2023/03/08 12:35:49;;;;;;;3.40;1.50;;;;;;;22.68;20.40;98496.79;144599;1263;96699;-77
2023/03/08 12:39:32;;;;;;;3.00;1.30;;;;;;;22.18;20.71;98499.48;144803;1258;97465;-80
2023/03/08 12:43:14;;;;;;;3.60;2.00;;;;;;;22.50;20.89;98498.66;144724;1264;97866;-83
2023/03/08 12:46:48;;;;;;;3.00;1.30;;;;;;;22.65;20.99;98493.40;144588;1263;96576;-79
2023/03/08 12:50:24;;;;;;;1.80;1.10;;;;;;;22.14;21.10;98497.21;144702;1257;96580;-77
2023/03/08 12:53:56;;;;;;;11.50;1.70;;;;;;;21.62;21.17;98501.70;144797;1262;96642;-81
2023/03/08 12:57:21;;;;;;;3.30;1.40;;;;;;;21.04;21.32;98495.58;144901;1263;96657;-78
2023/03/08 13:00:43;;;;;;;4.40;1.60;;;;;;;20.80;21.66;98494.11;144880;1264;96654;-79
2023/03/08 13:04:25;;;;;;;1.80;1.40;;;;;;;20.88;21.91;98500.44;144884;1262;96699;-78
2023/03/08 13:08:11;;;;;;;3.50;1.80;;;;;;;21.04;22.20;98487.99;144773;1257;96553;-79
2023/03/08 13:11:39;;;;;;;2.80;1.50;;;;;;;21.42;22.14;98485.75;144725;1262;96613;-82
2023/03/08 13:15:08;;;;;;;3.90;1.60;;;;;;;21.49;22.10;98477.29;144842;1263;97246;-78
2023/03/08 13:18:30;;;;;;;3.20;1.40;;;;;;;21.26;21.89;98477.54;144355;1257;97500;-77
2023/03/08 13:22:15;;;;;;;12.90;1.40;;;;;;;21.18;21.98;98474.03;144670;1260;97927;-78
2023/03/08 13:25:42;;;;;;;2.70;1.40;;;;;;;21.37;21.82;98475.40;144915;1263;96583;-77
2023/03/08 13:29:14;;;;;;;2.80;1.60;;;;;;;21.57;21.70;98473.69;144655;1262;96570;-79
2023/03/08 13:32:38;;;;;;;3.10;1.50;;;;;;;21.68;21.68;98478.04;144685;1265;96676;-84
2023/03/08 13:36:04;;;;;;;2.20;1.30;;;;;;;21.89;21.70;98478.90;144641;1260;97858;-83
2023/03/08 13:39:29;;;;;;;3.90;1.90;;;;;;;22.03;21.77;98476.91;144865;1257;97858;-81
2023/03/08 13:43:04;;;;;;;1.90;1.50;;;;;;;22.11;21.79;98472.96;145026;1260;96610;-84
2023/03/08 13:46:26;;;;;;;2.00;1.80;;;;;;;22.18;21.77;98471.38;144759;1257;96962;-85
2023/03/08 13:49:49;;;;;;;4.20;1.90;;;;;;;22.36;21.62;98467.20;144851;1258;96631;-84
2023/03/08 13:53:22;;;;;;;3.00;1.40;;;;;;;22.48;21.33;98467.80;144884;1260;96758;-84
2023/03/08 13:56:44;;;;;;;2.00;1.40;;;;;;;22.49;21.23;98463.44;144913;1263;97471;-83
2023/03/08 14:00:28;;;;;;;2.50;1.60;;;;;;;22.46;21.10;98459.42;144849;1260;97852;-83
2023/03/08 14:03:53;;;;;;;3.10;1.40;;;;;;;22.38;21.04;98460.73;145027;1263;97570;-81
2023/03/08 14:07:21;;;;;;;4.50;1.80;;;;;;;22.28;20.97;98453.86;144872;1258;97815;-81
2023/03/08 14:10:50;;;;;;;3.10;1.80;;;;;;;22.22;21.04;98450.08;144777;1257;96536;-81
2023/03/08 14:14:21;;;;;;;2.50;1.90;;;;;;;22.20;21.00;98447.41;144945;1264;97567;-84
2023/03/08 14:17:43;;;;;;;3.00;1.90;;;;;;;22.16;20.95;98449.88;145114;1257;96636;-83
2023/03/08 14:21:22;;;;;;;5.20;2.30;;;;;;;21.88;20.91;98444.32;145202;1257;96639;-79
2023/03/08 14:24:48;;;;;;;;;;;;;;;21.51;21.04;98435.99;144656;1260;96610;-78
2023/03/08 14:28:36;;;;;;;3.20;2.10;;;;;;;20.93;21.26;98434.67;145015;1261;96666;-80
2023/03/08 14:32:10;;;;;;;2.90;1.70;;;;;;;20.29;21.51;98429.77;145121;1256;96555;-80
2023/03/08 14:35:38;;;;;;;2.50;1.90;;;;;;;19.77;21.89;98424.45;145110;1257;96654;-81
2023/03/08 14:39:03;;;;;;;2.20;1.60;;;;;;;19.33;22.33;98417.19;145186;1270;97832;-79
2023/03/08 14:42:39;;;;;;;4.80;1.90;;;;;;;18.89;22.44;98414.84;145361;1270;97353;-80
2023/03/08 14:46:04;;;;;;;5.30;2.30;;;;;;;18.41;22.77;98415.49;145134;1261;96577;-79
2023/03/08 14:49:28;;;;;;;3.80;2.00;;;;;;;18.02;23.12;98410.00;145201;1257;96574;-81
2023/03/08 14:53:24;;;;;;;3.20;1.40;;;;;;;17.59;23.58;98408.39;144813;1260;96645;-79
2023/03/08 14:56:48;;;;;;;9.80;2.70;;;;;;;17.24;24.21;98406.15;144818;1257;96556;-82
2023/03/08 15:00:13;;;;;;;4.80;3.80;;;;;;;17.14;25.30;98404.38;144886;1257;97757;-80
2023/03/08 15:03:35;;;;;;;5.50;3.30;;;;;;;17.23;26.47;98397.23;145158;1257;96639;-80
2023/03/08 15:06:57;;;;;;;6.10;3.30;;;;;;;17.31;26.79;98393.42;145206;1257;97860;-80
2023/03/08 15:10:31;;;;;;;6.00;3.70;;;;;;;17.29;27.82;98393.67;145151;1256;96641;-79
2023/03/08 15:13:56;;;;;;;8.40;4.10;;;;;;;17.22;28.67;98391.83;144710;1263;110039;-80
2023/03/08 15:17:18;;;;;;;8.00;4.40;;;;;;;17.15;29.60;98393.99;144681;1260;109336;-81
2023/03/08 15:20:43;;;;;;;4.40;3.10;;;;;;;17.01;30.02;98393.95;144664;1260;97735;-80
2023/03/08 15:24:06;;;;;;;7.40;2.90;;;;;;;16.85;30.56;98392.90;145116;1260;110615;-80
2023/03/08 15:27:29;;;;;;;4.30;3.20;;;;;;;16.69;30.70;98388.16;144648;1267;108684;-81
2023/03/08 15:30:53;;;;;;;5.40;3.10;;;;;;;16.59;31.13;98383.05;145276;1257;97472;-80
2023/03/08 15:34:15;;;;;;;5.10;3.00;;;;;;;16.48;31.39;98378.99;144714;1258;96991;-80
2023/03/08 15:37:40;;;;;;;8.80;3.40;;;;;;;16.36;31.53;98377.46;144820;1260;97474;-79
2023/03/08 15:41:03;;;;;;;4.70;2.90;;;;;;;16.24;31.64;98373.47;144544;1268;109683;-81
2023/03/08 15:44:26;;;;;;;3.60;2.60;;;;;;;16.06;31.61;98373.85;144784;1262;97465;-81
2023/03/08 15:47:56;;;;;;;3.90;2.50;;;;;;;15.85;31.51;98370.48;144820;1256;96674;-82
2023/03/08 15:51:18;;;;;;;4.60;2.60;;;;;;;15.64;31.73;98368.11;144758;1256;102048;-80
2023/03/08 15:54:43;;;;;;;4.60;2.70;;;;;;;15.51;32.04;98370.00;144740;1258;96555;-79
2023/03/08 15:58:06;;;;;;;3.90;2.90;;;;;;;15.45;32.29;98369.14;144784;1258;101977;-80
2023/03/08 16:01:32;;;;;;;3.40;2.10;;;;;;;15.39;32.50;98371.60;145194;1257;102185;-80